Niquelandia Airport


Codes: SWNQ/NQL
Name: Niquelandia Airport
City: Niquelandia
Country: Brazil
Elevation: 2756 ft.

Photos at Niquelandia Airport


   Photos courtesy of SpottingLog. You can add your own sightings and photos by signing up for a free trial today.



No photos found.

Weather at Niquelandia Airport


Time (UTC)DescriptionTempratureWindCloud coverageVisibilityPressureHumidity
21-Feb-2024 03:00Light Rain20°C2 mph, NE100%10000m1011hPa99%
21-Feb-2024 06:00Light Rain20°C2 mph, N100%8681m1010hPa99%
21-Feb-2024 09:00Light Rain20°C2 mph, NW100%10000m1010hPa98%
21-Feb-2024 12:00Light Rain21°C4 mph, NW100%10000m1012hPa95%
21-Feb-2024 15:00Moderate Rain20°C4 mph, NW100%10000m1011hPa97%
21-Feb-2024 18:00Light Rain21°C4 mph, NW100%10000m1009hPa94%
21-Feb-2024 21:00Light Rain21°C2 mph, N100%10000m1009hPa97%
22-Feb-2024 00:00Light Rain20°C2 mph, NE100%10000m1011hPa98%
22-Feb-2024 03:00Light Rain20°C2 mph, N100%10000m1011hPa98%
22-Feb-2024 06:00Light Rain19°C2 mph, N100%10000m1010hPa99%
22-Feb-2024 09:00Light Rain20°C2 mph, N100%10000m1011hPa98%
22-Feb-2024 12:00Light Rain21°C4 mph, NE100%10000m1013hPa95%
22-Feb-2024 15:00Light Rain21°C4 mph, N100%10000m1013hPa92%
22-Feb-2024 18:00Light Rain25°C2 mph, N100%10000m1009hPa78%
22-Feb-2024 21:00Light Rain23°C2 mph, NE80%10000m1009hPa90%
23-Feb-2024 00:00Light Rain20°C2 mph, N88%10000m1012hPa96%
23-Feb-2024 03:00Light Rain20°C2 mph, N100%10000m1012hPa97%
23-Feb-2024 06:00Light Rain19°C2 mph, NE100%10000m1012hPa99%
23-Feb-2024 09:00Light Rain19°C0 mph, NW100%9336m1013hPa99%
23-Feb-2024 12:00Light Rain21°C0 mph, W100%10000m1015hPa95%
23-Feb-2024 15:00Moderate Rain23°C2 mph, E100%9287m1014hPa89%
23-Feb-2024 18:00Moderate Rain21°C4 mph, NE100%5831m1013hPa98%
23-Feb-2024 21:00Heavy Intensity Rain19°C4 mph, NE100%1581m1014hPa99%
24-Feb-2024 00:00Light Rain19°C2 mph, E100%10000m1015hPa99%
24-Feb-2024 03:00Light Rain19°C4 mph, E100%1903m1015hPa99%
24-Feb-2024 06:00Overcast Clouds18°C2 mph, E100%10000m1015hPa99%
24-Feb-2024 09:00Overcast Clouds18°C2 mph, SE100%10000m1016hPa98%
24-Feb-2024 12:00Overcast Clouds21°C2 mph, SE100%10000m1017hPa89%
24-Feb-2024 15:00Overcast Clouds26°C4 mph, NE100%10000m1016hPa68%
24-Feb-2024 18:00Light Rain26°C2 mph, NE87%10000m1013hPa71%
24-Feb-2024 21:00Light Rain24°C2 mph, E24%10000m1013hPa87%
25-Feb-2024 00:00Light Rain21°C2 mph, SE33%10000m1015hPa91%
25-Feb-2024 03:00Overcast Clouds20°C2 mph, SE99%10000m1016hPa93%
25-Feb-2024 06:00Broken Clouds19°C2 mph, E77%10000m1014hPa95%
25-Feb-2024 09:00Clear Sky18°C2 mph, SE0%10000m1015hPa95%
25-Feb-2024 12:00Clear Sky24°C4 mph, E1%10000m1017hPa79%
25-Feb-2024 15:00Few Clouds28°C7 mph, E11%10000m1015hPa61%
25-Feb-2024 18:00Scattered Clouds28°C4 mph, E31%10000m1012hPa63%
25-Feb-2024 21:00Light Rain24°C4 mph, SE87%10000m1013hPa84%
26-Feb-2024 00:00Overcast Clouds21°C4 mph, E87%10000m1014hPa90%